createdAt,value
2019-06-01T00:00:53.628Z,7.60
2019-06-01T00:03:24.720Z,8.25
2019-06-01T00:05:55.642Z,8.00
2019-06-01T00:08:26.643Z,7.25
2019-06-01T00:10:57.788Z,8.30
2019-06-01T00:13:28.812Z,18.92
2019-06-01T00:15:59.997Z,13.25
2019-06-01T00:18:31.198Z,12.90
2019-06-01T00:21:02.531Z,10.82
2019-06-01T00:23:33.594Z,11.78
2019-06-01T00:26:04.858Z,12.88
2019-06-01T00:28:36.008Z,9.08
2019-06-01T00:31:07.046Z,8.70
2019-06-01T00:33:38.237Z,8.33
2019-06-01T00:36:09.234Z,8.08
2019-06-01T00:38:41.492Z,9.08
2019-06-01T00:41:13.086Z,9.48
2019-06-01T00:43:44.241Z,8.23
2019-06-01T00:46:15.336Z,7.80
2019-06-01T00:48:46.265Z,8.55
2019-06-01T00:51:17.230Z,8.23
2019-06-01T00:53:49.532Z,9.63
2019-06-01T00:56:21.000Z,8.28
2019-06-01T00:58:52.087Z,10.63
2019-06-01T01:01:23.274Z,10.28
2019-06-01T01:03:54.584Z,9.28
2019-06-01T01:06:25.749Z,8.20
2019-06-01T01:08:56.880Z,9.90
2019-06-01T01:11:28.143Z,9.13
2019-06-01T01:13:59.187Z,9.68
2019-06-01T01:16:30.276Z,8.80
2019-06-01T01:19:01.451Z,8.58
2019-06-01T01:21:32.664Z,10.90
2019-06-01T01:24:03.832Z,10.68
2019-06-01T01:26:34.982Z,12.85
2019-06-01T01:29:07.119Z,13.38
2019-06-01T01:31:38.261Z,14.28
2019-06-01T01:34:09.437Z,15.32
2019-06-01T01:36:40.516Z,14.45
2019-06-01T01:39:11.935Z,14.95
2019-06-01T01:41:43.133Z,16.05
2019-06-01T01:44:14.308Z,11.50
2019-06-01T01:46:45.625Z,13.08
2019-06-01T01:49:18.928Z,15.63
2019-06-01T01:51:50.436Z,16.70
2019-06-01T01:54:21.686Z,14.30
2019-06-01T01:56:54.050Z,9.40
2019-06-01T01:59:25.589Z,11.20
2019-06-01T02:01:58.652Z,11.38
2019-06-01T02:04:29.987Z,11.70
2019-06-01T02:07:02.377Z,14.38
2019-06-01T02:09:34.076Z,17.40
2019-06-01T02:12:05.238Z,13.22
2019-06-01T02:14:36.484Z,12.80
2019-06-01T02:17:07.607Z,16.15
2019-06-01T02:19:38.940Z,16.42
2019-06-01T02:22:10.171Z,12.85
2019-06-01T02:24:41.414Z,15.63
2019-06-01T02:27:12.741Z,15.03
2019-06-01T02:29:44.071Z,14.13
2019-06-01T02:32:15.244Z,14.20
2019-06-01T02:34:46.377Z,14.20
2019-06-01T02:37:17.711Z,13.40
2019-06-01T02:39:48.824Z,13.10
2019-06-01T02:42:20.152Z,13.22
2019-06-01T02:44:52.468Z,14.85
2019-06-01T02:47:23.631Z,15.13
2019-06-01T02:49:55.643Z,15.20
2019-06-01T02:52:27.103Z,15.00
2019-06-01T02:54:59.589Z,14.23
2019-06-01T02:57:30.980Z,13.70
2019-06-01T03:00:02.707Z,14.58
2019-06-01T03:02:34.521Z,13.78
2019-06-01T03:05:07.672Z,13.43
2019-06-01T03:07:41.554Z,13.32
2019-06-01T03:10:14.211Z,12.45
2019-06-01T03:12:45.542Z,12.00
2019-06-01T03:15:17.813Z,12.30
2019-06-01T03:17:49.285Z,11.15
2019-06-01T03:20:20.462Z,10.80
2019-06-01T03:22:52.821Z,11.35
2019-06-01T03:25:24.376Z,10.72
2019-06-01T03:27:57.013Z,11.60
2019-06-01T03:30:45.108Z,10.78
2019-06-01T03:33:14.275Z,10.75
2019-06-01T03:35:46.137Z,10.32
2019-06-01T03:38:17.248Z,11.48
2019-06-01T03:40:48.477Z,11.22
2019-06-01T03:43:20.091Z,11.05
2019-06-01T03:45:51.187Z,10.60
2019-06-01T03:48:22.390Z,9.88
2019-06-01T03:50:53.490Z,10.28
2019-06-01T03:53:24.689Z,12.43
2019-06-01T03:55:55.870Z,14.85
2019-06-01T03:58:27.050Z,13.32
2019-06-01T04:00:59.228Z,13.40
2019-06-01T04:03:30.439Z,13.28
2019-06-01T04:06:01.687Z,13.48
2019-06-01T04:08:32.829Z,14.50
2019-06-01T04:11:04.018Z,14.90
2019-06-01T04:13:35.267Z,15.38
2019-06-01T04:16:06.436Z,14.53
2019-06-01T04:18:37.611Z,13.68
2019-06-01T04:21:10.184Z,13.00
2019-06-01T04:23:41.566Z,12.85
2019-06-01T04:26:12.668Z,12.30
2019-06-01T04:28:46.069Z,12.33
2019-06-01T04:31:17.305Z,12.18
2019-06-01T04:33:48.498Z,12.13
2019-06-01T04:36:19.756Z,11.40
2019-06-01T04:38:50.947Z,11.35
2019-06-01T04:41:22.198Z,11.50
2019-06-01T04:43:53.430Z,12.10
2019-06-01T04:46:24.749Z,12.37
2019-06-01T04:49:15.043Z,44.27
2019-06-01T04:51:46.362Z,19.40
2019-06-01T04:55:18.131Z,40.43
2019-06-01T04:57:17.529Z,16.62
2019-06-01T05:00:28.208Z,15.63
2019-06-01T05:03:05.484Z,12.28
2019-06-01T05:05:32.370Z,11.50
2019-06-01T05:08:07.042Z,11.43
2019-06-01T05:10:38.548Z,11.50
2019-06-01T05:13:09.795Z,10.70
2019-06-01T05:15:41.182Z,10.25
2019-06-01T05:18:19.736Z,11.18
2019-06-01T05:20:51.376Z,9.48
2019-06-01T05:23:22.375Z,8.53
2019-06-01T05:25:53.460Z,9.98
2019-06-01T05:28:24.392Z,9.45
2019-06-01T05:30:55.531Z,9.10
2019-06-01T05:33:36.922Z,9.65
2019-06-01T05:35:59.274Z,9.70
2019-06-01T05:38:30.504Z,9.15
2019-06-01T05:41:01.590Z,10.08
2019-06-01T05:43:32.834Z,9.25
2019-06-01T05:46:04.028Z,10.18
2019-06-01T05:48:35.474Z,10.63
2019-06-01T05:51:06.735Z,10.43
2019-06-01T05:53:37.801Z,10.43
2019-06-01T05:56:10.474Z,9.63
2019-06-01T05:58:49.826Z,9.85
2019-06-01T06:01:22.782Z,9.88
2019-06-01T06:03:54.223Z,10.00
2019-06-01T06:06:25.492Z,10.15
2019-06-01T06:08:58.721Z,9.90
2019-06-01T06:11:29.602Z,9.13
2019-06-01T06:14:00.656Z,10.20
2019-06-01T06:16:31.766Z,9.90
2019-06-01T06:19:02.941Z,9.75
2019-06-01T06:21:33.983Z,9.18
2019-06-01T06:24:05.432Z,9.53
2019-06-01T06:26:36.456Z,9.53
2019-06-01T06:29:07.457Z,10.15
2019-06-01T06:31:38.757Z,9.98
2019-06-01T06:34:09.771Z,9.53
2019-06-01T06:36:40.791Z,9.60
2019-06-01T06:39:11.758Z,9.73
2019-06-01T06:41:42.727Z,9.40
2019-06-01T06:44:14.422Z,8.58
2019-06-01T06:46:45.687Z,9.40
2019-06-01T06:49:17.115Z,8.70
2019-06-01T06:51:48.120Z,8.75
2019-06-01T06:54:21.959Z,8.70
2019-06-01T06:56:54.399Z,9.08
2019-06-01T06:59:28.366Z,8.68
2019-06-01T07:01:59.321Z,8.28
2019-06-01T07:04:30.342Z,8.20
2019-06-01T07:07:01.355Z,7.83
2019-06-01T07:09:32.274Z,6.85
2019-06-01T07:12:03.221Z,7.47
2019-06-01T07:14:34.130Z,7.78
2019-06-01T07:17:05.046Z,7.25
2019-06-01T07:19:36.017Z,8.40
2019-06-01T07:22:06.970Z,8.10
2019-06-01T07:24:37.997Z,7.35
2019-06-01T07:27:09.012Z,7.80
2019-06-01T07:29:40.096Z,7.55
2019-06-01T07:32:11.970Z,7.67
2019-06-01T07:34:43.196Z,7.10
2019-06-01T07:37:14.256Z,7.33
2019-06-01T07:39:45.181Z,7.25
2019-06-01T07:42:16.249Z,7.00
2019-06-01T07:44:47.218Z,6.60
2019-06-01T07:47:18.163Z,6.70
2019-06-01T07:49:49.137Z,6.55
2019-06-01T07:52:20.227Z,6.65
2019-06-01T07:54:51.221Z,6.70
2019-06-01T07:57:23.500Z,6.37
2019-06-01T07:59:55.336Z,7.20
2019-06-01T08:02:29.474Z,6.58
2019-06-01T08:05:02.234Z,7.03
2019-06-01T08:07:33.238Z,6.42
2019-06-01T08:10:06.114Z,6.72
2019-06-01T08:12:37.238Z,6.92
2019-06-01T08:15:08.632Z,6.37
2019-06-01T08:17:39.599Z,6.58
2019-06-01T08:20:11.471Z,6.22
2019-06-01T08:22:42.394Z,5.55
2019-06-01T08:25:14.365Z,6.05
2019-06-01T08:27:45.343Z,6.12
2019-06-01T08:30:16.372Z,5.37
2019-06-01T08:32:47.337Z,5.78
2019-06-01T08:35:18.316Z,5.92
2019-06-01T08:37:49.259Z,4.53
2019-06-01T08:40:20.212Z,5.97
2019-06-01T08:42:51.164Z,5.42
2019-06-01T08:45:23.420Z,4.53
2019-06-01T08:47:54.652Z,4.78
2019-06-01T08:50:25.749Z,4.03
2019-06-01T08:52:56.753Z,4.45
2019-06-01T08:55:28.063Z,5.45
2019-06-01T08:57:59.080Z,5.40
2019-06-01T09:00:30.591Z,4.30
2019-06-01T09:03:01.835Z,4.33
2019-06-01T09:05:33.159Z,4.47
2019-06-01T09:08:04.144Z,4.25
2019-06-01T09:10:35.623Z,4.17
2019-06-01T09:13:06.709Z,4.12
2019-06-01T09:15:37.918Z,3.72
2019-06-01T09:18:08.845Z,4.05
2019-06-01T09:20:40.278Z,3.58
2019-06-01T09:23:11.281Z,3.50
2019-06-01T09:25:42.296Z,3.72
2019-06-01T09:28:13.187Z,3.95
2019-06-01T09:30:44.583Z,3.92
2019-06-01T09:33:15.556Z,3.52
2019-06-01T09:35:55.620Z,3.80
2019-06-01T09:38:19.378Z,3.30
2019-06-01T09:40:50.459Z,3.40
2019-06-01T09:43:21.796Z,3.50
2019-06-01T09:45:53.615Z,3.70
2019-06-01T09:48:24.919Z,4.30
2019-06-01T09:50:55.874Z,3.62
2019-06-01T09:53:28.673Z,3.55
2019-06-01T09:55:59.547Z,3.67
2019-06-01T09:58:30.470Z,3.30
2019-06-01T10:01:01.615Z,3.70
2019-06-01T10:03:34.319Z,3.85
2019-06-01T10:06:06.496Z,4.12
2019-06-01T10:08:38.170Z,3.60
2019-06-01T10:11:09.485Z,4.20
2019-06-01T10:13:40.499Z,4.22
2019-06-01T10:16:11.440Z,3.95
2019-06-01T10:18:43.133Z,4.03
2019-06-01T10:21:33.949Z,3.72
2019-06-01T10:24:06.461Z,3.80
2019-06-01T10:26:42.621Z,3.92
2019-06-01T10:29:13.298Z,4.10
2019-06-01T10:31:44.437Z,3.75
2019-06-01T10:34:15.642Z,3.87
2019-06-01T10:36:49.880Z,3.52
2019-06-01T10:39:27.781Z,4.00
2019-06-01T10:42:14.720Z,3.47
2019-06-01T10:44:48.331Z,3.10
2019-06-01T10:47:20.330Z,3.55
2019-06-01T10:49:51.613Z,3.52
2019-06-01T10:52:22.750Z,3.58
2019-06-01T10:54:53.997Z,3.90
2019-06-01T10:57:25.107Z,3.60
2019-06-01T10:59:56.222Z,3.42
2019-06-01T11:02:27.733Z,3.47
2019-06-01T11:04:58.947Z,3.45
2019-06-01T11:07:30.101Z,2.98
2019-06-01T11:10:01.474Z,3.67
2019-06-01T11:12:34.907Z,3.35
2019-06-01T11:15:07.614Z,4.03
2019-06-01T11:17:39.241Z,3.77
2019-06-01T11:20:11.155Z,3.60
2019-06-01T11:22:43.603Z,3.27
2019-06-01T11:25:15.343Z,3.72
2019-06-01T11:27:46.469Z,3.25
2019-06-01T11:30:17.717Z,3.12
2019-06-01T11:32:49.263Z,3.20
2019-06-01T11:35:20.505Z,3.10
2019-06-01T11:37:51.679Z,3.22
2019-06-01T11:40:22.915Z,3.67
2019-06-01T11:42:54.098Z,3.17
2019-06-01T11:45:25.220Z,2.83
2019-06-01T11:47:56.584Z,3.70
2019-06-01T11:50:27.873Z,3.22
2019-06-01T11:52:59.219Z,3.50
2019-06-01T11:55:30.379Z,3.05
2019-06-01T11:58:01.558Z,2.92
2019-06-01T12:00:32.838Z,3.02
2019-06-01T12:03:03.972Z,3.00
2019-06-01T12:05:35.780Z,2.92
2019-06-01T12:08:07.285Z,3.35
2019-06-01T12:10:38.931Z,3.30
2019-06-01T12:13:10.222Z,3.45
2019-06-01T12:15:42.283Z,3.20
2019-06-01T12:18:13.563Z,3.33
2019-06-01T12:20:44.982Z,3.08
2019-06-01T12:23:16.338Z,2.85
2019-06-01T12:25:48.483Z,2.60
2019-06-01T12:28:32.316Z,3.05
2019-06-01T12:31:13.075Z,3.35
2019-06-01T12:33:46.364Z,3.00
2019-06-01T12:36:17.905Z,3.40
2019-06-01T12:38:55.080Z,2.70
2019-06-01T12:41:26.226Z,3.08
2019-06-01T12:44:12.787Z,3.20
2019-06-01T12:46:44.099Z,2.77
2019-06-01T12:49:15.330Z,3.42
2019-06-01T12:51:47.049Z,3.47
2019-06-01T12:54:18.284Z,3.15
2019-06-01T12:56:54.702Z,3.00
2019-06-01T12:59:23.749Z,2.83
2019-06-01T13:01:54.874Z,3.20
2019-06-01T13:04:26.015Z,3.12
2019-06-01T13:06:57.124Z,3.20
2019-06-01T13:09:28.302Z,2.58
2019-06-01T13:11:59.497Z,2.72
2019-06-01T13:14:30.547Z,2.80
2019-06-01T13:17:07.088Z,2.87
2019-06-01T13:19:34.438Z,3.15
2019-06-01T13:22:05.547Z,3.47
2019-06-01T13:24:38.228Z,3.20
2019-06-01T13:27:09.422Z,3.08
2019-06-01T13:29:41.741Z,2.92
2019-06-01T13:32:13.010Z,2.83
2019-06-01T13:34:44.712Z,3.17
2019-06-01T13:37:15.910Z,2.70
2019-06-01T13:39:54.222Z,4.67
2019-06-01T13:42:21.814Z,3.40
2019-06-01T13:44:55.536Z,3.33
2019-06-01T13:47:27.103Z,3.22
2019-06-01T13:49:59.187Z,3.27
2019-06-01T13:52:30.370Z,3.50
2019-06-01T13:55:01.602Z,3.45
2019-06-01T13:57:32.729Z,3.20
2019-06-01T14:00:06.266Z,2.87
2019-06-01T14:02:37.922Z,2.85
2019-06-01T14:05:09.370Z,2.62
2019-06-01T14:07:40.543Z,3.08
2019-06-01T14:10:11.918Z,3.40
2019-06-01T14:12:43.045Z,3.10
2019-06-01T14:15:14.825Z,3.58
2019-06-01T14:17:46.083Z,3.22
2019-06-01T14:20:17.225Z,3.10
2019-06-01T14:22:49.723Z,3.27
2019-06-01T14:25:21.018Z,3.02
2019-06-01T14:27:52.268Z,3.22
2019-06-01T14:30:24.243Z,3.20
2019-06-01T14:32:56.939Z,2.72
2019-06-01T14:35:28.312Z,3.35
2019-06-01T14:37:59.769Z,3.42
2019-06-01T14:40:32.543Z,3.40
2019-06-01T14:43:03.653Z,3.22
2019-06-01T14:45:34.735Z,3.37
2019-06-01T14:48:06.938Z,3.12
2019-06-01T14:50:38.099Z,3.45
2019-06-01T14:53:12.197Z,3.42
2019-06-01T14:55:43.477Z,3.42
2019-06-01T14:58:14.663Z,3.27
2019-06-01T15:00:45.867Z,3.40
2019-06-01T15:03:17.512Z,3.10
2019-06-01T15:05:48.682Z,3.40
2019-06-01T15:08:19.766Z,3.52
2019-06-01T15:10:52.946Z,3.70
2019-06-01T15:13:23.775Z,4.15
2019-06-01T15:15:55.601Z,3.42
2019-06-01T15:18:27.101Z,3.72
2019-06-01T15:20:58.272Z,4.15
2019-06-01T15:23:29.427Z,3.40
2019-06-01T15:26:00.610Z,3.67
2019-06-01T15:28:31.836Z,4.85
2019-06-01T15:31:03.705Z,5.70
2019-06-01T15:33:36.237Z,6.00
2019-06-01T15:36:08.808Z,5.90
2019-06-01T15:38:40.032Z,6.10
2019-06-01T15:41:11.194Z,6.20
2019-06-01T15:43:42.479Z,6.60
2019-06-01T15:46:13.741Z,6.10
2019-06-01T15:48:46.564Z,7.00
2019-06-01T15:51:17.725Z,6.62
2019-06-01T15:53:48.913Z,5.92
2019-06-01T15:56:23.556Z,6.60
2019-06-01T15:58:55.389Z,6.50
2019-06-01T16:01:25.933Z,6.62
2019-06-01T16:03:57.388Z,6.92
2019-06-01T16:06:30.473Z,7.00
2019-06-01T16:09:01.818Z,6.60
2019-06-01T16:11:32.981Z,6.60
2019-06-01T16:14:04.117Z,6.83
2019-06-01T16:16:35.184Z,7.05
2019-06-01T16:19:08.042Z,6.95
2019-06-01T16:21:39.342Z,6.80
2019-06-01T16:24:10.545Z,7.00
2019-06-01T16:26:41.724Z,7.00
2019-06-01T16:29:12.844Z,7.55
2019-06-01T16:31:44.139Z,7.22
2019-06-01T16:34:15.375Z,8.08
2019-06-01T16:36:46.645Z,7.50
2019-06-01T16:39:17.806Z,7.35
2019-06-01T16:42:02.132Z,8.15
2019-06-01T16:44:33.536Z,7.37
2019-06-01T16:47:06.021Z,8.00
2019-06-01T16:49:37.630Z,8.20
2019-06-01T16:52:08.720Z,7.10
2019-06-01T16:54:39.826Z,7.60
2019-06-01T16:57:11.299Z,7.50
2019-06-01T16:59:42.543Z,8.33
2019-06-01T17:02:13.743Z,7.97
2019-06-01T17:04:45.095Z,8.03
2019-06-01T17:07:23.621Z,8.40
2019-06-01T17:10:23.980Z,8.45
2019-06-01T17:12:48.007Z,8.18
2019-06-01T17:15:19.326Z,9.05
2019-06-01T17:17:50.427Z,7.83
2019-06-01T17:20:45.257Z,8.45
2019-06-01T17:23:27.339Z,6.92
2019-06-01T17:25:49.235Z,7.03
2019-06-01T17:28:20.469Z,6.90
2019-06-01T17:30:53.962Z,7.85
2019-06-01T17:33:25.082Z,6.72
2019-06-01T17:35:56.306Z,7.12
2019-06-01T17:38:27.365Z,6.90
2019-06-01T17:41:02.210Z,6.95
2019-06-01T17:43:33.811Z,6.72
2019-06-01T17:46:05.322Z,7.08
2019-06-01T17:48:36.544Z,6.60
2019-06-01T17:51:08.595Z,10.25
2019-06-01T17:53:39.893Z,8.58
2019-06-01T17:56:18.139Z,8.05
2019-06-01T17:58:57.205Z,8.85
2019-06-01T18:01:30.127Z,8.90
2019-06-01T18:07:23.651Z,8.45
2019-06-01T18:10:12.171Z,8.50
2019-06-01T18:12:46.977Z,8.00
2019-06-01T18:15:18.264Z,8.13
2019-06-01T18:17:53.121Z,8.68
2019-06-01T18:20:28.346Z,8.60
2019-06-01T18:23:00.348Z,8.43
2019-06-01T18:25:31.575Z,9.83
2019-06-01T18:28:02.703Z,10.00
2019-06-01T18:30:34.009Z,9.65
2019-06-01T18:33:05.214Z,9.78
2019-06-01T18:35:36.352Z,9.50
2019-06-01T18:38:09.800Z,9.58
2019-06-01T18:40:41.252Z,9.23
2019-06-01T18:43:15.068Z,11.00
2019-06-01T18:45:47.199Z,10.72
2019-06-01T18:48:20.718Z,14.68
2019-06-01T18:50:52.131Z,11.03
2019-06-01T18:53:23.583Z,11.05
2019-06-01T18:55:56.302Z,10.75
2019-06-01T18:58:27.541Z,10.43
2019-06-01T19:00:58.887Z,12.23
2019-06-01T19:03:30.340Z,10.58
2019-06-01T19:06:05.132Z,12.53
2019-06-01T19:08:40.406Z,27.40
2019-06-01T19:11:28.311Z,12.50
2019-06-01T19:13:47.293Z,10.80
2019-06-01T19:16:23.456Z,10.32
2019-06-01T19:18:56.187Z,11.40
2019-06-01T19:21:29.086Z,10.38
2019-06-01T19:24:00.477Z,9.38
2019-06-01T19:26:31.654Z,11.40
2019-06-01T19:29:02.941Z,11.95
2019-06-01T19:31:34.211Z,10.78
2019-06-01T19:34:06.742Z,9.98
2019-06-01T19:36:39.565Z,9.90
2019-06-01T19:39:11.150Z,10.70
2019-06-01T19:41:45.194Z,11.18
2019-06-01T19:44:15.794Z,11.63
2019-06-01T19:46:47.419Z,11.95
2019-06-01T19:49:19.078Z,12.50
2019-06-01T19:51:50.856Z,15.23
2019-06-01T19:54:22.182Z,16.90
2019-06-01T19:56:54.166Z,21.23
2019-06-01T19:59:25.413Z,15.38
2019-06-01T20:01:56.643Z,11.40
2019-06-01T20:04:27.903Z,10.63
2019-06-01T20:06:59.272Z,9.30
2019-06-01T20:09:30.545Z,8.13
2019-06-01T20:12:05.635Z,5.85
2019-06-01T20:14:34.659Z,6.60
2019-06-01T20:17:05.771Z,6.25
2019-06-01T20:19:36.925Z,9.05
2019-06-01T20:22:08.180Z,10.80
2019-06-01T20:24:39.310Z,14.13
2019-06-01T20:27:11.319Z,12.47
2019-06-01T20:29:44.339Z,11.60
2019-06-01T20:32:15.933Z,9.95
2019-06-01T20:34:47.122Z,8.20
2019-06-01T20:37:18.348Z,9.08
2019-06-01T20:39:52.191Z,7.42
2019-06-01T20:42:32.010Z,5.53
2019-06-01T20:44:56.190Z,4.97
2019-06-01T20:47:27.427Z,5.95
2019-06-01T20:49:58.598Z,5.97
2019-06-01T20:52:29.668Z,7.20
2019-06-01T20:55:00.777Z,7.87
2019-06-01T20:57:31.807Z,9.75
2019-06-01T21:00:03.622Z,11.25
2019-06-01T21:02:34.921Z,15.40
2019-06-01T21:05:07.443Z,11.12
2019-06-01T21:07:38.746Z,7.67
2019-06-01T21:10:11.221Z,7.60
2019-06-01T21:12:45.352Z,7.58
2019-06-01T21:15:17.330Z,7.28
2019-06-01T21:17:50.615Z,7.17
2019-06-01T21:20:28.599Z,8.45
2019-06-01T21:22:55.660Z,10.28
2019-06-01T21:25:26.862Z,10.90
2019-06-01T21:27:58.047Z,10.23
2019-06-01T21:30:29.294Z,11.60
2019-06-01T21:33:00.516Z,11.10
2019-06-01T21:35:31.774Z,7.75
2019-06-01T21:38:02.927Z,7.42
2019-06-01T21:40:34.029Z,5.70
2019-06-01T21:43:23.135Z,5.30
2019-06-01T21:45:37.961Z,5.28
2019-06-01T21:48:09.142Z,5.80
2019-06-01T21:50:40.195Z,5.08
2019-06-01T21:53:11.322Z,4.87
2019-06-01T21:55:42.346Z,5.17
2019-06-01T21:58:13.442Z,5.30
2019-06-01T22:00:46.148Z,5.10
2019-06-01T22:03:18.939Z,5.05
2019-06-01T22:05:50.061Z,4.83
2019-06-01T22:08:21.287Z,5.00
2019-06-01T22:10:52.413Z,4.67
2019-06-01T22:13:25.521Z,4.78
2019-06-01T22:15:56.554Z,4.15
2019-06-01T22:18:27.973Z,4.60
2019-06-01T22:20:59.379Z,4.45
2019-06-01T22:23:31.125Z,4.28
2019-06-01T22:26:02.386Z,4.30
2019-06-01T22:28:33.590Z,3.77
2019-06-01T22:31:04.684Z,4.00
2019-06-01T22:33:35.815Z,4.00
2019-06-01T22:36:06.935Z,4.40
2019-06-01T22:38:38.041Z,4.40
2019-06-01T22:41:09.178Z,5.08
2019-06-01T22:43:46.451Z,6.37
2019-06-01T22:46:13.091Z,7.95
2019-06-01T22:48:44.101Z,7.15
2019-06-01T22:51:15.179Z,8.10
2019-06-01T22:53:46.313Z,9.53
2019-06-01T22:56:18.965Z,9.00
2019-06-01T22:58:50.010Z,9.68
2019-06-01T23:01:21.155Z,9.83
2019-06-01T23:03:52.183Z,9.50
2019-06-01T23:06:23.269Z,9.23
2019-06-01T23:08:54.358Z,8.80
2019-06-01T23:11:25.435Z,8.60
2019-06-01T23:13:56.576Z,7.60
2019-06-01T23:16:27.688Z,7.78
2019-06-01T23:18:58.845Z,7.17
2019-06-01T23:21:30.021Z,8.33
2019-06-01T23:24:01.192Z,8.05
2019-06-01T23:26:32.534Z,7.55
2019-06-01T23:29:03.731Z,7.40
2019-06-01T23:31:34.698Z,6.75
2019-06-01T23:34:05.880Z,7.90
2019-06-01T23:36:36.879Z,8.30
2019-06-01T23:39:08.323Z,8.30
2019-06-01T23:41:39.457Z,7.95
2019-06-01T23:44:12.543Z,8.60
2019-06-01T23:46:45.600Z,9.23
2019-06-01T23:49:16.713Z,10.32
2019-06-01T23:51:48.022Z,10.10
2019-06-01T23:54:19.217Z,9.98
2019-06-01T23:56:50.254Z,9.78
2019-06-01T23:59:21.327Z,9.23
